sensor_id;sensor_type;location;lat;lon;timestamp;pressure;altitude;pressure_sealevel;temperature;humidity
61900;BME280;47853;55.890;37.664;2024-01-16T00:00:46;96830.75;;;0.98;100.00
61900;BME280;47853;55.890;37.664;2024-01-16T00:03:11;96866.91;;;0.78;100.00
61900;BME280;47853;55.890;37.664;2024-01-16T00:05:37;96848.56;;;1.03;100.00
61900;BME280;47853;55.890;37.664;2024-01-16T00:08:02;96849.00;;;1.14;100.00
61900;BME280;47853;55.890;37.664;2024-01-16T00:10:28;96837.22;;;1.10;100.00
61900;BME280;47853;55.890;37.664;2024-01-16T00:12:53;96844.09;;;0.63;100.00
61900;BME280;47853;55.890;37.664;2024-01-16T00:15:18;96845.38;;;0.67;100.00
61900;BME280;47853;55.890;37.664;2024-01-16T00:17:44;96842.53;;;0.94;100.00
61900;BME280;47853;55.890;37.664;2024-01-16T00:20:10;96832.75;;;1.27;100.00
61900;BME280;47853;55.890;37.664;2024-01-16T00:22:35;96845.69;;;1.21;100.00
61900;BME280;47853;55.890;37.664;2024-01-16T00:25:01;96837.75;;;1.06;100.00
61900;BME280;47853;55.890;37.664;2024-01-16T00:27:26;96828.94;;;1.38;100.00
61900;BME280;47853;55.890;37.664;2024-01-16T00:29:52;96843.03;;;1.29;100.00
61900;BME280;47853;55.890;37.664;2024-01-16T00:32:17;96827.53;;;1.82;100.00
61900;BME280;47853;55.890;37.664;2024-01-16T00:34:43;96848.41;;;0.96;100.00
61900;BME280;47853;55.890;37.664;2024-01-16T00:37:08;96829.66;;;1.79;100.00
61900;BME280;47853;55.890;37.664;2024-01-16T00:39:34;96837.44;;;2.10;100.00
61900;BME280;47853;55.890;37.664;2024-01-16T00:41:59;96844.59;;;1.93;100.00
61900;BME280;47853;55.890;37.664;2024-01-16T00:44:25;96819.00;;;1.34;100.00
61900;BME280;47853;55.890;37.664;2024-01-16T00:46:50;96828.03;;;1.23;100.00
61900;BME280;47853;55.890;37.664;2024-01-16T00:49:16;96815.38;;;1.03;100.00
61900;BME280;47853;55.890;37.664;2024-01-16T00:51:41;96842.03;;;0.98;100.00
61900;BME280;47853;55.890;37.664;2024-01-16T00:54:07;96843.91;;;0.65;100.00
61900;BME280;47853;55.890;37.664;2024-01-16T00:56:32;96846.53;;;0.65;100.00
61900;BME280;47853;55.890;37.664;2024-01-16T00:58:58;96837.25;;;1.42;100.00
61900;BME280;47853;55.890;37.664;2024-01-16T01:01:23;96839.38;;;0.67;100.00
61900;BME280;47853;55.890;37.664;2024-01-16T01:03:49;96828.53;;;1.50;100.00
61900;BME280;47853;55.890;37.664;2024-01-16T01:06:14;96829.56;;;1.09;100.00
61900;BME280;47853;55.890;37.664;2024-01-16T01:08:40;96838.97;;;1.26;100.00
61900;BME280;47853;55.890;37.664;2024-01-16T01:11:05;96830.56;;;1.08;100.00
61900;BME280;47853;55.890;37.664;2024-01-16T01:13:31;96838.53;;;1.14;100.00
61900;BME280;47853;55.890;37.664;2024-01-16T01:15:56;96819.66;;;1.36;100.00
61900;BME280;47853;55.890;37.664;2024-01-16T01:18:22;96822.66;;;1.48;100.00
61900;BME280;47853;55.890;37.664;2024-01-16T01:20:47;96827.13;;;1.07;100.00
61900;BME280;47853;55.890;37.664;2024-01-16T01:23:13;96828.72;;;1.48;100.00
61900;BME280;47853;55.890;37.664;2024-01-16T01:25:38;96833.69;;;1.66;100.00
61900;BME280;47853;55.890;37.664;2024-01-16T01:28:04;96813.84;;;1.17;100.00
61900;BME280;47853;55.890;37.664;2024-01-16T01:30:29;96830.22;;;0.71;100.00
61900;BME280;47853;55.890;37.664;2024-01-16T01:32:55;96826.78;;;0.62;100.00
61900;BME280;47853;55.890;37.664;2024-01-16T01:35:20;96834.88;;;0.84;100.00
61900;BME280;47853;55.890;37.664;2024-01-16T01:37:46;96835.59;;;0.69;100.00
61900;BME280;47853;55.890;37.664;2024-01-16T01:40:11;96813.09;;;1.63;100.00
61900;BME280;47853;55.890;37.664;2024-01-16T01:42:37;96827.91;;;1.48;100.00
61900;BME280;47853;55.890;37.664;2024-01-16T01:45:02;96796.50;;;1.48;100.00
61900;BME280;47853;55.890;37.664;2024-01-16T01:47:30;96819.16;;;1.00;100.00
61900;BME280;47853;55.890;37.664;2024-01-16T01:49:56;96812.94;;;1.01;100.00
61900;BME280;47853;55.890;37.664;2024-01-16T01:52:21;96804.75;;;1.05;100.00
61900;BME280;47853;55.890;37.664;2024-01-16T01:54:47;96828.84;;;0.83;100.00
61900;BME280;47853;55.890;37.664;2024-01-16T01:57:13;96819.72;;;0.79;100.00
61900;BME280;47853;55.890;37.664;2024-01-16T01:59:38;96809.59;;;0.84;100.00
61900;BME280;47853;55.890;37.664;2024-01-16T02:02:04;96815.72;;;1.32;100.00
61900;BME280;47853;55.890;37.664;2024-01-16T02:04:31;96811.91;;;1.66;100.00
61900;BME280;47853;55.890;37.664;2024-01-16T02:06:57;96796.56;;;1.08;100.00
61900;BME280;47853;55.890;37.664;2024-01-16T02:09:23;96803.13;;;0.55;100.00
61900;BME280;47853;55.890;37.664;2024-01-16T02:11:48;96814.47;;;1.19;100.00
61900;BME280;47853;55.890;37.664;2024-01-16T02:14:14;96816.75;;;0.91;100.00
61900;BME280;47853;55.890;37.664;2024-01-16T02:16:41;96826.50;;;0.97;100.00
61900;BME280;47853;55.890;37.664;2024-01-16T02:19:07;96827.06;;;0.76;100.00
61900;BME280;47853;55.890;37.664;2024-01-16T02:21:48;96818.38;;;0.92;100.00
61900;BME280;47853;55.890;37.664;2024-01-16T02:24:15;96819.00;;;0.94;100.00
61900;BME280;47853;55.890;37.664;2024-01-16T02:26:42;96840.47;;;0.72;100.00
61900;BME280;47853;55.890;37.664;2024-01-16T02:29:07;96810.91;;;0.80;100.00
61900;BME280;47853;55.890;37.664;2024-01-16T02:31:33;96815.56;;;1.01;100.00
61900;BME280;47853;55.890;37.664;2024-01-16T02:33:59;96838.34;;;1.16;100.00
61900;BME280;47853;55.890;37.664;2024-01-16T02:36:26;96831.34;;;1.08;100.00
61900;BME280;47853;55.890;37.664;2024-01-16T02:38:51;96830.63;;;0.91;100.00
61900;BME280;47853;55.890;37.664;2024-01-16T02:41:18;96820.56;;;0.71;100.00
61900;BME280;47853;55.890;37.664;2024-01-16T02:43:44;96825.88;;;1.58;100.00
61900;BME280;47853;55.890;37.664;2024-01-16T02:46:09;96837.56;;;1.47;100.00
61900;BME280;47853;55.890;37.664;2024-01-16T02:48:38;96831.03;;;1.43;100.00
61900;BME280;47853;55.890;37.664;2024-01-16T02:51:04;96833.31;;;1.46;100.00
61900;BME280;47853;55.890;37.664;2024-01-16T02:53:30;96827.16;;;1.30;100.00
61900;BME280;47853;55.890;37.664;2024-01-16T02:55:56;96839.59;;;1.60;100.00
61900;BME280;47853;55.890;37.664;2024-01-16T02:58:21;96836.56;;;1.17;100.00
61900;BME280;47853;55.890;37.664;2024-01-16T03:00:47;96828.09;;;1.14;100.00
61900;BME280;47853;55.890;37.664;2024-01-16T03:03:13;96851.34;;;0.93;100.00
61900;BME280;47853;55.890;37.664;2024-01-16T03:05:38;96838.88;;;1.11;100.00
61900;BME280;47853;55.890;37.664;2024-01-16T03:08:04;96847.81;;;1.17;100.00
61900;BME280;47853;55.890;37.664;2024-01-16T03:10:30;96839.91;;;0.94;100.00
61900;BME280;47853;55.890;37.664;2024-01-16T03:12:55;96867.53;;;1.36;100.00
61900;BME280;47853;55.890;37.664;2024-01-16T03:15:20;96821.63;;;1.25;100.00
61900;BME280;47853;55.890;37.664;2024-01-16T03:17:47;96842.59;;;1.49;100.00
61900;BME280;47853;55.890;37.664;2024-01-16T03:20:12;96838.19;;;1.18;100.00
61900;BME280;47853;55.890;37.664;2024-01-16T03:22:38;96845.97;;;0.94;100.00
61900;BME280;47853;55.890;37.664;2024-01-16T03:25:07;96846.25;;;1.08;100.00
61900;BME280;47853;55.890;37.664;2024-01-16T03:27:33;96828.56;;;0.62;100.00
61900;BME280;47853;55.890;37.664;2024-01-16T03:29:59;96841.38;;;0.96;100.00
61900;BME280;47853;55.890;37.664;2024-01-16T03:32:25;96849.69;;;1.40;100.00
61900;BME280;47853;55.890;37.664;2024-01-16T03:34:50;96830.53;;;0.76;100.00
61900;BME280;47853;55.890;37.664;2024-01-16T03:37:16;96836.00;;;0.90;100.00
61900;BME280;47853;55.890;37.664;2024-01-16T03:39:41;96832.41;;;0.91;100.00
61900;BME280;47853;55.890;37.664;2024-01-16T03:42:07;96833.56;;;0.96;100.00
61900;BME280;47853;55.890;37.664;2024-01-16T03:44:32;96845.78;;;0.96;100.00
61900;BME280;47853;55.890;37.664;2024-01-16T03:46:57;96824.97;;;1.42;100.00
61900;BME280;47853;55.890;37.664;2024-01-16T03:49:26;96845.84;;;1.59;100.00
61900;BME280;47853;55.890;37.664;2024-01-16T03:51:51;96835.44;;;0.71;100.00
61900;BME280;47853;55.890;37.664;2024-01-16T03:54:16;96826.31;;;1.38;100.00
61900;BME280;47853;55.890;37.664;2024-01-16T03:56:42;96822.72;;;1.08;100.00
61900;BME280;47853;55.890;37.664;2024-01-16T03:59:07;96861.31;;;0.97;100.00
61900;BME280;47853;55.890;37.664;2024-01-16T04:01:33;96842.59;;;0.77;100.00
61900;BME280;47853;55.890;37.664;2024-01-16T04:03:59;96829.50;;;0.85;100.00
61900;BME280;47853;55.890;37.664;2024-01-16T04:06:25;96839.72;;;1.04;100.00
61900;BME280;47853;55.890;37.664;2024-01-16T04:08:50;96847.56;;;1.67;100.00
61900;BME280;47853;55.890;37.664;2024-01-16T04:11:15;96855.78;;;1.32;100.00
61900;BME280;47853;55.890;37.664;2024-01-16T04:13:41;96837.34;;;1.57;100.00
61900;BME280;47853;55.890;37.664;2024-01-16T04:16:09;96847.44;;;0.89;100.00
61900;BME280;47853;55.890;37.664;2024-01-16T04:18:42;96839.19;;;1.48;100.00
61900;BME280;47853;55.890;37.664;2024-01-16T04:21:08;96826.81;;;1.02;100.00
61900;BME280;47853;55.890;37.664;2024-01-16T04:23:34;96860.25;;;1.15;100.00
61900;BME280;47853;55.890;37.664;2024-01-16T04:26:00;96824.56;;;1.54;100.00
61900;BME280;47853;55.890;37.664;2024-01-16T04:28:26;96859.88;;;1.26;100.00
61900;BME280;47853;55.890;37.664;2024-01-16T04:30:52;96858.84;;;0.96;100.00
61900;BME280;47853;55.890;37.664;2024-01-16T04:33:17;96841.41;;;0.88;100.00
61900;BME280;47853;55.890;37.664;2024-01-16T04:35:43;96855.97;;;0.82;100.00
61900;BME280;47853;55.890;37.664;2024-01-16T04:38:08;96845.66;;;1.29;100.00
61900;BME280;47853;55.890;37.664;2024-01-16T04:40:34;96842.78;;;1.07;100.00
61900;BME280;47853;55.890;37.664;2024-01-16T04:43:00;96841.59;;;1.81;100.00
61900;BME280;47853;55.890;37.664;2024-01-16T04:45:28;96830.00;;;1.52;100.00
61900;BME280;47853;55.890;37.664;2024-01-16T04:47:54;96843.44;;;1.72;100.00
61900;BME280;47853;55.890;37.664;2024-01-16T04:50:19;96864.75;;;1.29;100.00
61900;BME280;47853;55.890;37.664;2024-01-16T04:52:45;96872.31;;;0.76;100.00
61900;BME280;47853;55.890;37.664;2024-01-16T04:55:11;96852.53;;;0.82;100.00
61900;BME280;47853;55.890;37.664;2024-01-16T04:57:36;96858.03;;;0.22;100.00
61900;BME280;47853;55.890;37.664;2024-01-16T05:00:03;96868.16;;;0.25;100.00
61900;BME280;47853;55.890;37.664;2024-01-16T05:02:28;96855.66;;;0.77;100.00
61900;BME280;47853;55.890;37.664;2024-01-16T05:04:54;96868.63;;;1.02;100.00
61900;BME280;47853;55.890;37.664;2024-01-16T05:07:19;96879.84;;;0.54;100.00
61900;BME280;47853;55.890;37.664;2024-01-16T05:09:45;96878.97;;;0.87;100.00
61900;BME280;47853;55.890;37.664;2024-01-16T05:12:10;96861.63;;;-0.04;100.00
61900;BME280;47853;55.890;37.664;2024-01-16T05:14:36;96870.31;;;0.86;100.00
61900;BME280;47853;55.890;37.664;2024-01-16T05:17:01;96864.09;;;0.96;100.00
61900;BME280;47853;55.890;37.664;2024-01-16T05:19:27;96880.47;;;0.65;100.00
61900;BME280;47853;55.890;37.664;2024-01-16T05:21:52;96871.84;;;1.21;100.00
61900;BME280;47853;55.890;37.664;2024-01-16T05:24:18;96881.63;;;0.70;100.00
61900;BME280;47853;55.890;37.664;2024-01-16T05:26:43;96882.66;;;0.45;100.00
61900;BME280;47853;55.890;37.664;2024-01-16T05:29:09;96871.13;;;0.87;100.00
61900;BME280;47853;55.890;37.664;2024-01-16T05:31:40;96872.88;;;1.03;100.00
61900;BME280;47853;55.890;37.664;2024-01-16T05:34:05;96860.03;;;1.33;100.00
61900;BME280;47853;55.890;37.664;2024-01-16T05:36:30;96884.88;;;0.89;100.00
61900;BME280;47853;55.890;37.664;2024-01-16T05:38:56;96879.50;;;0.66;100.00
61900;BME280;47853;55.890;37.664;2024-01-16T05:41:21;96866.09;;;0.77;100.00
61900;BME280;47853;55.890;37.664;2024-01-16T05:43:47;96872.69;;;1.76;100.00
61900;BME280;47853;55.890;37.664;2024-01-16T05:46:12;96882.47;;;1.19;100.00
61900;BME280;47853;55.890;37.664;2024-01-16T05:48:38;96881.66;;;1.10;100.00
61900;BME280;47853;55.890;37.664;2024-01-16T05:51:03;96867.78;;;1.73;100.00
61900;BME280;47853;55.890;37.664;2024-01-16T05:53:29;96856.06;;;1.37;100.00
61900;BME280;47853;55.890;37.664;2024-01-16T05:55:55;96864.50;;;0.60;100.00
61900;BME280;47853;55.890;37.664;2024-01-16T05:58:20;96893.06;;;1.26;100.00
61900;BME280;47853;55.890;37.664;2024-01-16T06:00:46;96865.38;;;1.00;100.00
61900;BME280;47853;55.890;37.664;2024-01-16T06:03:11;96865.50;;;0.67;100.00
61900;BME280;47853;55.890;37.664;2024-01-16T06:05:36;96860.38;;;0.74;100.00
61900;BME280;47853;55.890;37.664;2024-01-16T06:08:02;96879.84;;;0.63;100.00
61900;BME280;47853;55.890;37.664;2024-01-16T06:10:27;96869.94;;;1.46;100.00
61900;BME280;47853;55.890;37.664;2024-01-16T06:12:53;96874.47;;;1.21;100.00
61900;BME280;47853;55.890;37.664;2024-01-16T06:15:18;96876.03;;;0.90;100.00
61900;BME280;47853;55.890;37.664;2024-01-16T06:17:44;96859.59;;;0.65;100.00
61900;BME280;47853;55.890;37.664;2024-01-16T06:20:10;96871.19;;;0.62;100.00
61900;BME280;47853;55.890;37.664;2024-01-16T06:22:35;96882.16;;;1.14;100.00
61900;BME280;47853;55.890;37.664;2024-01-16T06:25:01;96892.03;;;0.95;100.00
61900;BME280;47853;55.890;37.664;2024-01-16T06:27:26;96910.53;;;0.52;100.00
61900;BME280;47853;55.890;37.664;2024-01-16T06:29:52;96905.19;;;1.10;100.00
61900;BME280;47853;55.890;37.664;2024-01-16T06:32:17;96890.16;;;0.56;100.00
61900;BME280;47853;55.890;37.664;2024-01-16T06:34:43;96885.56;;;1.23;100.00
61900;BME280;47853;55.890;37.664;2024-01-16T06:37:08;96886.34;;;1.63;100.00
61900;BME280;47853;55.890;37.664;2024-01-16T06:39:34;96895.00;;;0.76;100.00
61900;BME280;47853;55.890;37.664;2024-01-16T06:42:00;96881.75;;;1.65;100.00
61900;BME280;47853;55.890;37.664;2024-01-16T06:44:28;96890.31;;;1.51;100.00
61900;BME280;47853;55.890;37.664;2024-01-16T06:46:54;96871.06;;;0.47;100.00
61900;BME280;47853;55.890;37.664;2024-01-16T06:49:19;96895.50;;;1.36;100.00
61900;BME280;47853;55.890;37.664;2024-01-16T06:51:45;96905.06;;;1.43;100.00
61900;BME280;47853;55.890;37.664;2024-01-16T06:54:10;96893.06;;;1.57;100.00
61900;BME280;47853;55.890;37.664;2024-01-16T06:56:35;96900.44;;;0.49;100.00
61900;BME280;47853;55.890;37.664;2024-01-16T06:59:01;96916.69;;;0.93;100.00
61900;BME280;47853;55.890;37.664;2024-01-16T07:01:29;96905.81;;;0.56;100.00
61900;BME280;47853;55.890;37.664;2024-01-16T07:03:55;96905.38;;;1.09;100.00
61900;BME280;47853;55.890;37.664;2024-01-16T07:06:20;96866.34;;;0.34;100.00
61900;BME280;47853;55.890;37.664;2024-01-16T07:08:46;96880.69;;;0.22;100.00
61900;BME280;47853;55.890;37.664;2024-01-16T07:11:11;96877.91;;;0.56;100.00
61900;BME280;47853;55.890;37.664;2024-01-16T07:13:37;96884.72;;;0.82;100.00
61900;BME280;47853;55.890;37.664;2024-01-16T07:16:02;96895.50;;;0.79;100.00
61900;BME280;47853;55.890;37.664;2024-01-16T07:18:28;96889.66;;;0.69;100.00
61900;BME280;47853;55.890;37.664;2024-01-16T07:20:53;96891.72;;;0.90;100.00
61900;BME280;47853;55.890;37.664;2024-01-16T07:23:19;96893.34;;;0.83;100.00
61900;BME280;47853;55.890;37.664;2024-01-16T07:25:44;96912.16;;;0.62;100.00
61900;BME280;47853;55.890;37.664;2024-01-16T07:28:10;96914.47;;;0.56;100.00
61900;BME280;47853;55.890;37.664;2024-01-16T07:30:35;96892.72;;;0.72;100.00
61900;BME280;47853;55.890;37.664;2024-01-16T07:33:01;96907.19;;;1.00;100.00
61900;BME280;47853;55.890;37.664;2024-01-16T07:35:26;96901.84;;;0.85;100.00
61900;BME280;47853;55.890;37.664;2024-01-16T07:37:52;96900.38;;;0.82;100.00
61900;BME280;47853;55.890;37.664;2024-01-16T07:40:17;96916.94;;;0.08;100.00
61900;BME280;47853;55.890;37.664;2024-01-16T07:42:43;96909.56;;;0.62;100.00
61900;BME280;47853;55.890;37.664;2024-01-16T07:45:08;96899.31;;;0.52;100.00
61900;BME280;47853;55.890;37.664;2024-01-16T07:47:34;96895.66;;;0.69;100.00
61900;BME280;47853;55.890;37.664;2024-01-16T07:49:59;96903.25;;;1.52;100.00
61900;BME280;47853;55.890;37.664;2024-01-16T07:52:26;96901.97;;;1.48;100.00
61900;BME280;47853;55.890;37.664;2024-01-16T07:54:52;96900.41;;;1.22;100.00
61900;BME280;47853;55.890;37.664;2024-01-16T07:57:17;96890.09;;;0.81;100.00
61900;BME280;47853;55.890;37.664;2024-01-16T07:59:43;96886.19;;;0.77;100.00
61900;BME280;47853;55.890;37.664;2024-01-16T08:02:08;96882.81;;;1.48;100.00
61900;BME280;47853;55.890;37.664;2024-01-16T08:04:34;96870.13;;;0.96;100.00
61900;BME280;47853;55.890;37.664;2024-01-16T08:06:59;96884.16;;;0.22;100.00
61900;BME280;47853;55.890;37.664;2024-01-16T08:09:25;96870.25;;;0.55;100.00
61900;BME280;47853;55.890;37.664;2024-01-16T08:11:50;96881.34;;;1.13;100.00
61900;BME280;47853;55.890;37.664;2024-01-16T08:14:17;96877.97;;;0.96;100.00
61900;BME280;47853;55.890;37.664;2024-01-16T08:16:43;96893.09;;;0.36;100.00
61900;BME280;47853;55.890;37.664;2024-01-16T08:19:08;96876.19;;;0.89;100.00
61900;BME280;47853;55.890;37.664;2024-01-16T08:21:34;96872.53;;;0.25;100.00
61900;BME280;47853;55.890;37.664;2024-01-16T08:24:00;96879.00;;;0.70;100.00
61900;BME280;47853;55.890;37.664;2024-01-16T08:26:26;96866.66;;;0.39;100.00
61900;BME280;47853;55.890;37.664;2024-01-16T08:28:51;96861.16;;;0.91;100.00
61900;BME280;47853;55.890;37.664;2024-01-16T08:31:17;96850.53;;;1.00;100.00
61900;BME280;47853;55.890;37.664;2024-01-16T08:33:43;96856.84;;;0.58;100.00
61900;BME280;47853;55.890;37.664;2024-01-16T08:36:08;96854.53;;;0.63;100.00
61900;BME280;47853;55.890;37.664;2024-01-16T08:38:34;96849.16;;;0.56;100.00
61900;BME280;47853;55.890;37.664;2024-01-16T08:40:59;96857.66;;;0.50;100.00
61900;BME280;47853;55.890;37.664;2024-01-16T08:43:25;96861.69;;;0.78;100.00
61900;BME280;47853;55.890;37.664;2024-01-16T08:45:50;96863.56;;;0.44;100.00
61900;BME280;47853;55.890;37.664;2024-01-16T08:48:16;96860.41;;;1.53;100.00
61900;BME280;47853;55.890;37.664;2024-01-16T08:50:41;96868.47;;;0.14;100.00
61900;BME280;47853;55.890;37.664;2024-01-16T08:53:06;96836.81;;;0.09;100.00
61900;BME280;47853;55.890;37.664;2024-01-16T08:55:32;96858.03;;;0.06;100.00
61900;BME280;47853;55.890;37.664;2024-01-16T08:57:58;96855.34;;;1.20;100.00
61900;BME280;47853;55.890;37.664;2024-01-16T09:00:23;96854.28;;;0.98;100.00
61900;BME280;47853;55.890;37.664;2024-01-16T09:02:49;96844.66;;;0.98;100.00
61900;BME280;47853;55.890;37.664;2024-01-16T09:05:14;96853.88;;;1.49;95.78
61900;BME280;47853;55.890;37.664;2024-01-16T09:07:40;96853.31;;;1.39;92.07
61900;BME280;47853;55.890;37.664;2024-01-16T09:10:06;96860.34;;;1.30;97.01
61900;BME280;47853;55.890;37.664;2024-01-16T09:12:32;96855.03;;;1.47;95.64
61900;BME280;47853;55.890;37.664;2024-01-16T09:14:57;96843.41;;;0.69;97.98
61900;BME280;47853;55.890;37.664;2024-01-16T09:17:23;96847.28;;;1.30;98.24
61900;BME280;47853;55.890;37.664;2024-01-16T09:19:48;96839.13;;;0.93;99.24
61900;BME280;47853;55.890;37.664;2024-01-16T09:22:14;96849.34;;;1.11;96.56
61900;BME280;47853;55.890;37.664;2024-01-16T09:24:39;96833.47;;;1.44;93.95
61900;BME280;47853;55.890;37.664;2024-01-16T09:27:05;96836.31;;;1.35;93.38
61900;BME280;47853;55.890;37.664;2024-01-16T09:29:30;96827.41;;;1.21;95.33
61900;BME280;47853;55.890;37.664;2024-01-16T09:31:55;96835.75;;;0.60;100.00
61900;BME280;47853;55.890;37.664;2024-01-16T09:34:21;96824.09;;;0.87;98.97
61900;BME280;47853;55.890;37.664;2024-01-16T09:36:46;96837.72;;;0.66;95.87
61900;BME280;47853;55.890;37.664;2024-01-16T09:39:18;96822.84;;;1.14;93.75
61900;BME280;47853;55.890;37.664;2024-01-16T09:41:44;96831.91;;;1.35;95.90
61900;BME280;47853;55.890;37.664;2024-01-16T09:44:10;96818.47;;;1.38;90.80
61900;BME280;47853;55.890;37.664;2024-01-16T09:46:37;96834.47;;;1.12;97.28
61900;BME280;47853;55.890;37.664;2024-01-16T09:49:03;96828.34;;;1.28;93.63
61900;BME280;47853;55.890;37.664;2024-01-16T09:51:29;96832.22;;;1.87;89.58
61900;BME280;47853;55.890;37.664;2024-01-16T09:53:55;96835.41;;;1.97;88.81
61900;BME280;47853;55.890;37.664;2024-01-16T09:56:24;96829.44;;;1.02;91.35
61900;BME280;47853;55.890;37.664;2024-01-16T09:58:51;96823.16;;;1.20;94.58
61900;BME280;47853;55.890;37.664;2024-01-16T10:01:21;96839.25;;;1.00;95.45
61900;BME280;47853;55.890;37.664;2024-01-16T10:03:48;96840.25;;;1.62;90.17
61900;BME280;47853;55.890;37.664;2024-01-16T10:06:15;96830.81;;;1.21;92.90
61900;BME280;47853;55.890;37.664;2024-01-16T10:08:42;96831.47;;;1.78;90.61
61900;BME280;47853;55.890;37.664;2024-01-16T10:11:08;96824.56;;;1.62;93.10
61900;BME280;47853;55.890;37.664;2024-01-16T10:13:36;96833.78;;;1.18;91.10
61900;BME280;47853;55.890;37.664;2024-01-16T10:16:03;96820.16;;;0.99;95.00
61900;BME280;47853;55.890;37.664;2024-01-16T10:18:29;96808.06;;;1.30;96.28
61900;BME280;47853;55.890;37.664;2024-01-16T10:20:54;96804.59;;;1.38;93.54
61900;BME280;47853;55.890;37.664;2024-01-16T10:23:26;96801.00;;;1.85;91.33
61900;BME280;47853;55.890;37.664;2024-01-16T10:26:11;96808.09;;;2.53;86.49
61900;BME280;47853;55.890;37.664;2024-01-16T10:28:42;96804.63;;;2.53;88.37
61900;BME280;47853;55.890;37.664;2024-01-16T10:31:11;96789.81;;;1.22;89.72
61900;BME280;47853;55.890;37.664;2024-01-16T10:33:37;96796.13;;;1.82;88.67
61900;BME280;47853;55.890;37.664;2024-01-16T10:36:13;96797.72;;;2.07;90.17
61900;BME280;47853;55.890;37.664;2024-01-16T10:38:43;96804.91;;;1.66;91.72
61900;BME280;47853;55.890;37.664;2024-01-16T10:41:16;96785.97;;;2.02;89.86
61900;BME280;47853;55.890;37.664;2024-01-16T10:43:45;96783.13;;;2.87;82.84
61900;BME280;47853;55.890;37.664;2024-01-16T10:46:17;96795.53;;;2.64;79.34
61900;BME280;47853;55.890;37.664;2024-01-16T10:49:02;96768.00;;;1.99;82.83
61900;BME280;47853;55.890;37.664;2024-01-16T10:51:29;96774.44;;;2.72;79.82
61900;BME280;47853;55.890;37.664;2024-01-16T10:54:02;96779.44;;;1.60;83.00
61900;BME280;47853;55.890;37.664;2024-01-16T10:56:31;96779.66;;;1.73;85.80
61900;BME280;47853;55.890;37.664;2024-01-16T10:59:08;96762.09;;;1.97;90.41
61900;BME280;47853;55.890;37.664;2024-01-16T11:01:38;96768.88;;;2.45;85.59
61900;BME280;47853;55.890;37.664;2024-01-16T11:04:05;96773.03;;;2.54;80.47
61900;BME280;47853;55.890;37.664;2024-01-16T11:06:32;96773.63;;;2.26;81.22
61900;BME280;47853;55.890;37.664;2024-01-16T11:08:59;96774.28;;;1.20;91.46
61900;BME280;47853;55.890;37.664;2024-01-16T11:11:25;96767.13;;;2.22;86.46
61900;BME280;47853;55.890;37.664;2024-01-16T11:13:52;96770.38;;;1.16;89.75
61900;BME280;47853;55.890;37.664;2024-01-16T11:16:20;96751.72;;;1.89;89.72
61900;BME280;47853;55.890;37.664;2024-01-16T11:18:46;96755.13;;;1.28;91.04
61900;BME280;47853;55.890;37.664;2024-01-16T11:21:16;96758.66;;;1.35;89.87
61900;BME280;47853;55.890;37.664;2024-01-16T11:23:42;96754.22;;;2.51;88.77
61900;BME280;47853;55.890;37.664;2024-01-16T11:26:39;96746.59;;;1.57;91.87
61900;BME280;47853;55.890;37.664;2024-01-16T11:31:53;96747.50;;;1.65;93.93
61900;BME280;47853;55.890;37.664;2024-01-16T11:37:15;96739.84;;;1.63;92.89
61900;BME280;47853;55.890;37.664;2024-01-16T11:39:40;96731.41;;;1.53;94.79
61900;BME280;47853;55.890;37.664;2024-01-16T11:42:06;96751.22;;;2.09;92.19
61900;BME280;47853;55.890;37.664;2024-01-16T11:47:09;96707.38;;;1.72;90.95
61900;BME280;47853;55.890;37.664;2024-01-16T11:49:39;96729.03;;;1.66;95.26
61900;BME280;47853;55.890;37.664;2024-01-16T11:52:05;96739.50;;;2.65;87.26
61900;BME280;47853;55.890;37.664;2024-01-16T11:54:30;96737.00;;;1.88;90.49
61900;BME280;47853;55.890;37.664;2024-01-16T12:02:20;96722.06;;;2.42;85.60
61900;BME280;47853;55.890;37.664;2024-01-16T12:04:55;96731.38;;;2.59;86.38
61900;BME280;47853;55.890;37.664;2024-01-16T12:07:20;96730.09;;;1.57;90.60
61900;BME280;47853;55.890;37.664;2024-01-16T12:09:45;96688.84;;;1.21;89.65
61900;BME280;47853;55.890;37.664;2024-01-16T12:12:11;96719.22;;;1.45;91.82
61900;BME280;47853;55.890;37.664;2024-01-16T12:14:40;96721.94;;;1.28;91.13
61900;BME280;47853;55.890;37.664;2024-01-16T12:17:09;96715.19;;;1.34;89.44
61900;BME280;47853;55.890;37.664;2024-01-16T12:19:35;96717.66;;;0.41;97.58
61900;BME280;47853;55.890;37.664;2024-01-16T12:22:01;96705.94;;;1.00;99.56
61900;BME280;47853;55.890;37.664;2024-01-16T12:24:26;96719.06;;;0.60;98.98
61900;BME280;47853;55.890;37.664;2024-01-16T12:26:52;96706.97;;;0.91;97.86
61900;BME280;47853;55.890;37.664;2024-01-16T12:29:18;96706.13;;;1.68;91.29
61900;BME280;47853;55.890;37.664;2024-01-16T12:31:43;96707.84;;;1.53;92.83
61900;BME280;47853;55.890;37.664;2024-01-16T12:34:09;96705.88;;;1.08;97.96
61900;BME280;47853;55.890;37.664;2024-01-16T12:36:35;96697.97;;;1.63;94.57
61900;BME280;47853;55.890;37.664;2024-01-16T12:39:00;96716.09;;;2.18;88.73
61900;BME280;47853;55.890;37.664;2024-01-16T12:41:28;96692.22;;;1.83;89.43
61900;BME280;47853;55.890;37.664;2024-01-16T12:43:55;96716.81;;;1.12;98.45
61900;BME280;47853;55.890;37.664;2024-01-16T12:46:21;96720.09;;;1.37;96.83
61900;BME280;47853;55.890;37.664;2024-01-16T12:48:47;96716.13;;;1.18;92.19
61900;BME280;47853;55.890;37.664;2024-01-16T12:51:20;96697.88;;;1.10;94.71
61900;BME280;47853;55.890;37.664;2024-01-16T12:53:46;96698.09;;;1.85;87.39
61900;BME280;47853;55.890;37.664;2024-01-16T12:56:11;96690.88;;;1.87;87.42
61900;BME280;47853;55.890;37.664;2024-01-16T12:58:37;96705.31;;;1.83;84.50
61900;BME280;47853;55.890;37.664;2024-01-16T13:01:22;96705.25;;;1.06;89.43